ADDS METAR Data INFO
IDs: Format: Raw Decoded Include TAF

Data at: 0230 UTC 26 Jul 2017

KTPL 260151Z AUTO 12008KT 10SM FEW080 32/18 A3002 RMK AO2 SLP165 T03220178
KTPL 260051Z AUTO 14008KT 10SM FEW080 34/19 A3001 RMK AO2 SLP162 T03440189
KTPL 252351Z AUTO 14012KT 10SM FEW075 36/19 A3000 RMK AO2 SLP157 T03610189 10378 20333 55011
KTPL 252251Z AUTO 14016KT 10SM FEW070 37/19 A3000 RMK AO2 SLP155 T03720194
KTPL 252151Z AUTO 18011G17KT 10SM SCT065 37/20 A3002 RMK AO2 SLP165 T03720200
KTPL 252051Z AUTO 17010KT 10SM BKN060 38/21 A3003 RMK AO2 SLP168 T03780211 58017
KTPL 251951Z AUTO 17014KT 10SM SCT060 35/21 A3006 RMK AO2 SLP177 T03500211
KTPL 251851Z AUTO 18014G19KT 10SM SCT047 35/22 A3007 RMK AO2 SLP182 T03500222
KTPL 251751Z AUTO 17011G21KT 10SM SCT043 34/22 A3009 RMK AO2 SLP187 T03390222 10344 20244 58006
KTPL 251651Z AUTO 17011G19KT 10SM FEW037 32/23 A3010 RMK AO2 SLP192 T03220228
KTPL 251607Z AUTO 17014KT 10SM SCT032 31/23 A3010 RMK AO2
KTPL 251551Z AUTO 17017KT 10SM BKN028 31/23 A3010 RMK AO2 SLP192 T03110228
KTPL 251459Z AUTO 17016KT 10SM BKN021 29/24 A3010 RMK AO2
KTPL 251451Z AUTO 18014KT 10SM SCT017 SCT024 28/23 A3010 RMK AO2 SLP196 T02830233 51011
KTPL 251430Z AUTO 20015KT 10SM BKN015 BKN020 28/24 A3010 RMK AO2
KTPL 251412Z AUTO 18014KT 10SM BKN013 27/24 A3010 RMK AO2
KTPL 251351Z AUTO 18012KT 10SM SCT009 27/24 A3010 RMK AO2 SLP194 T02720239
KTPL 251258Z AUTO 15010KT 8SM FEW007 26/24 A3009 RMK AO2
KTPL 251251Z AUTO 15009KT 8SM CLR 25/24 A3009 RMK AO2 SLP191 T02500239
KTPL 251151Z AUTO 17009KT 8SM CLR 24/23 A3007 RMK AO2 SLP185 70010 T02440233 10261 20239 53008
KTPL 251051Z AUTO 17008KT 9SM SCT021 24/23 A3006 RMK AO2 SLP183 T02440233
KTPL 251036Z AUTO 17009KT 9SM BKN021 24/23 A3006 RMK AO2
KTPL 251020Z AUTO 16008KT 9SM SCT021 24/23 A3005 RMK AO2
KTPL 250951Z AUTO 16007KT 10SM BKN019 24/23 A3005 RMK AO2 SLP175 T02390228
KTPL 250948Z AUTO 16007KT 10SM BKN019 24/23 A3005 RMK AO2
KTPL 250851Z AUTO 17009KT 10SM CLR 24/22 A3003 RMK AO2 SLP170 T02390222 51005
KTPL 250751Z AUTO 16011KT 10SM CLR 24/22 A3003 RMK AO2 SLP169 T02440222
KTPL 250651Z AUTO 16011KT 10SM CLR 26/22 A3003 RMK AO2 SLP168 T02560217
KTPL 250551Z AUTO 16012KT 10SM CLR 26/21 A3002 RMK AO2 SLP165 T02560211 10300 20250 403440228 51018
KTPL 250451Z AUTO 13006KT 10SM CLR 25/22 A3001 RMK AO2 SLP162 T02500217
KTPL 250351Z AUTO 12005KT 10SM CLR 26/21 A2999 RMK AO2 SLP157 T02560211
KTPL 250251Z AUTO 10005KT 10SM CLR 26/23 A2996 RMK AO2 SLP147 T02560228 53002
KTPL 250151Z AUTO 09005KT 10SM CLR 26/23 A2996 RMK AO2 SLP146 T02610228
KTPL 250051Z AUTO 10005KT 10SM CLR 29/23 A2995 RMK AO2 SLP144 T02890228
KTPL 242351Z AUTO 10004KT 10SM CLR 28/23 A2996 RMK AO2 RAE06 SLP147 P0000 60010 T02830233 10344 20256 50004
KTPL 242251Z AUTO 08008KT 8SM -RA FEW030 BKN037 BKN047 26/23 A2997 RMK AO2 TSB2153E2158B2159E43RAB2156 SLP151 P0010 T02560233
KTPL 242249Z AUTO 09009KT 7SM -RA FEW030 BKN037 BKN044 26/23 A2997 RMK AO2 TSB2153E2158B2159E43RAB2156 P0010
KTPL 242205Z AUTO 20014KT 10SM VCTS -RA SCT044 BKN075 OVC085 29/21 A2995 RMK AO2 LTG DSNT E AND SE TSB2153E2158B2159RAB2156 P0000
KTPL 242158Z AUTO 20015KT 10SM -RA SCT046 SCT055 BKN075 31/22 A2995 RMK AO2 TSB53E58RAB56 P0000
KTPL 242151Z AUTO 20016G22KT 10SM BKN046 BKN070 32/21 A2995 RMK AO2 LTG DSNT E-SW SLP141 T03220211
KTPL 242051Z AUTO 12006KT 10SM FEW045 34/22 A2995 RMK AO2 LTG DSNT E-SW SLP142 60000 T03390222 58017
KTPL 241951Z AUTO 33003KT 10SM CLR 32/23 A2997 RMK AO2 LTG DSNT S RAB1852E02 SLP149 P0000 T03220228
KTPL 241851Z AUTO 34006KT 10SM CLR 32/23 A2999 RMK AO2 SLP156 T03170233
KTPL 241751Z AUTO VRB03KT 10SM FEW032 32/23 A3000 RMK AO2 SLP159 T03170233 10322 20228 50004
KTPL 241651Z AUTO 22005KT 10SM FEW030 31/23 A3001 RMK AO2 SLP163 T03110233
KTPL 241551Z AUTO 19011KT 10SM FEW023 31/23 A2999 RMK AO2 SLP155 T03060233
KTPL 241543Z AUTO 18011KT 10SM SCT023 31/23 A2999 RMK AO2
KTPL 241506Z AUTO 18013KT 10SM BKN019 31/24 A2999 RMK AO2
KTPL 241451Z AUTO 18013KT 10SM SCT017 30/24 A2999 RMK AO2 SLP155 T03000239 50007